Klimmen, Netherlands
Current Conditions -  °F | °C
As of 8:25 AM on Wednesday 22 Oct 2014 (Local Time) from EHBK Reporting Station
Overcast Overcast  
Wind Chill: 38°   Ceiling: 3000
Heat Index: 43°   Visibility: 6mi
Dew Point: 41°   Wind: 8mph
Humidity: 93%   Direction: 250°WSW
Pressure: 30.03"   Gusts: NA
Location:  50.88°N, 5.88°E
Report Text: EHBK 220625Z AUTO 25007KT 210V320 9999 FEW012 FEW015CB OVC03006/05 Q1017 TEMPO 4000 SHRA
Loading
Personal Weather Stations






























Interactive Weather Map
Tropical Storm Tracking
New forecast layout! Learn more

10-Day Weather Forecast

Advertisements
Track Severe Weather on mobile